createdAt,value
2023-06-16T00:00:13.938Z,97333.52
2023-06-16T00:03:02.937Z,97331.20
2023-06-16T00:05:32.358Z,97332.54
2023-06-16T00:08:02.109Z,97331.92
2023-06-16T00:10:31.253Z,97328.90
2023-06-16T00:12:59.364Z,97327.32
2023-06-16T00:15:27.390Z,97328.41
2023-06-16T00:17:57.976Z,97324.54
2023-06-16T00:20:28.025Z,97322.58
2023-06-16T00:22:58.494Z,97319.17
2023-06-16T00:25:26.960Z,97319.92
2023-06-16T00:27:55.020Z,97321.08
2023-06-16T00:30:23.175Z,97316.20
2023-06-16T00:32:51.180Z,97311.33
2023-06-16T00:35:21.191Z,97306.80
2023-06-16T00:37:49.231Z,97305.25
2023-06-16T00:40:17.694Z,97303.73
2023-06-16T00:42:45.976Z,97304.08
2023-06-16T00:45:14.073Z,97302.09
2023-06-16T00:47:42.451Z,97302.77
2023-06-16T00:50:12.564Z,97302.11
2023-06-16T00:52:40.909Z,97299.96
2023-06-16T00:55:12.723Z,97299.29
2023-06-16T00:57:41.318Z,97292.98
2023-06-16T01:00:13.099Z,97286.42
2023-06-16T01:02:42.171Z,97283.05
2023-06-16T01:05:10.616Z,97284.40
2023-06-16T01:08:00.420Z,97278.85
2023-06-16T01:10:38.498Z,97281.91
2023-06-16T01:13:23.181Z,97280.77
2023-06-16T01:15:53.719Z,97272.98
2023-06-16T01:18:27.045Z,97267.88
2023-06-16T01:21:02.309Z,97269.41
2023-06-16T01:23:58.365Z,97266.79
2023-06-16T01:26:29.724Z,97268.93
2023-06-16T01:29:01.352Z,97270.63
2023-06-16T01:31:32.482Z,97269.52
2023-06-16T01:34:02.627Z,97273.05
2023-06-16T01:36:33.295Z,97269.95
2023-06-16T01:39:02.184Z,97265.27
2023-06-16T01:41:31.371Z,97268.45
2023-06-16T01:44:01.143Z,97264.52
2023-06-16T01:46:30.671Z,97259.01
2023-06-16T01:48:59.805Z,97256.05
2023-06-16T01:51:27.966Z,97252.52
2023-06-16T01:53:57.403Z,97254.38
2023-06-16T01:56:26.805Z,97248.73
2023-06-16T01:58:55.015Z,97242.55
2023-06-16T02:01:28.912Z,97243.34
2023-06-16T02:04:14.230Z,97243.16
2023-06-16T02:06:52.260Z,97240.36
2023-06-16T02:09:23.501Z,97239.21
2023-06-16T02:11:53.263Z,97235.13
2023-06-16T02:14:23.072Z,97228.29
2023-06-16T02:16:52.410Z,97224.70
2023-06-16T02:19:21.031Z,97216.59
2023-06-16T02:21:48.966Z,97213.37
2023-06-16T02:24:17.196Z,97213.52
2023-06-16T02:26:45.144Z,97212.75
2023-06-16T02:29:13.123Z,97214.58
2023-06-16T02:31:41.292Z,97214.04
2023-06-16T02:34:09.827Z,97215.04
2023-06-16T02:36:38.720Z,97218.45
2023-06-16T02:39:06.682Z,97216.79
2023-06-16T02:41:35.556Z,97215.83
2023-06-16T02:44:04.382Z,97215.22
2023-06-16T02:46:32.459Z,97216.48
2023-06-16T02:49:00.610Z,97216.42
2023-06-16T02:51:28.658Z,97220.59
2023-06-16T02:53:57.486Z,97221.08
2023-06-16T02:56:26.176Z,97219.87
2023-06-16T02:58:55.128Z,97216.52
2023-06-16T03:01:25.936Z,97213.70
2023-06-16T03:04:27.112Z,97213.23
2023-06-16T03:06:59.872Z,97213.86
2023-06-16T03:09:41.981Z,97214.20
2023-06-16T03:12:11.350Z,97215.59
2023-06-16T03:14:43.709Z,97212.43
2023-06-16T03:17:15.529Z,97211.02
2023-06-16T03:19:43.672Z,97210.45
2023-06-16T03:22:11.966Z,97212.54
2023-06-16T03:24:44.597Z,97214.14
2023-06-16T03:27:13.187Z,97217.68
2023-06-16T03:29:46.912Z,97216.02
2023-06-16T03:32:14.899Z,97217.29
2023-06-16T03:34:45.567Z,97215.31
2023-06-16T03:37:13.781Z,97214.29
2023-06-16T03:39:41.878Z,97213.63
2023-06-16T03:42:11.844Z,97211.00
2023-06-16T03:44:40.056Z,97209.15
2023-06-16T03:47:08.211Z,97205.96
2023-06-16T03:49:36.200Z,97201.80
2023-06-16T03:52:04.619Z,97200.20
2023-06-16T03:54:33.195Z,97202.59
2023-06-16T03:57:01.545Z,97199.14
2023-06-16T03:59:31.127Z,97197.05
2023-06-16T04:01:59.313Z,97194.73
2023-06-16T04:04:27.810Z,97192.16
2023-06-16T04:06:56.041Z,97192.25
2023-06-16T04:09:24.176Z,97192.21
2023-06-16T04:11:52.662Z,97195.48
2023-06-16T04:14:22.782Z,97195.62
2023-06-16T04:16:52.933Z,97197.81
2023-06-16T04:19:21.515Z,97195.28
2023-06-16T04:21:49.757Z,97188.38
2023-06-16T04:24:19.281Z,97185.34
2023-06-16T04:26:49.631Z,97187.89
2023-06-16T04:29:18.855Z,97191.59
2023-06-16T04:31:49.502Z,97188.88
2023-06-16T04:34:19.398Z,97189.39
2023-06-16T04:36:48.838Z,97185.98
2023-06-16T04:39:26.801Z,97183.41
2023-06-16T04:41:54.865Z,97183.05
2023-06-16T04:44:24.867Z,97188.35
2023-06-16T04:46:54.168Z,97187.75
2023-06-16T04:49:22.778Z,97185.27
2023-06-16T04:51:51.135Z,97185.13
2023-06-16T04:54:20.208Z,97183.03
2023-06-16T04:56:48.354Z,97183.16
2023-06-16T04:59:16.613Z,97183.19
2023-06-16T05:01:45.051Z,97180.79
2023-06-16T05:04:13.375Z,97181.68
2023-06-16T05:06:43.209Z,97182.02
2023-06-16T05:09:11.300Z,97179.61
2023-06-16T05:11:39.628Z,97180.92
2023-06-16T05:14:07.894Z,97183.09
2023-06-16T05:16:38.159Z,97184.42
2023-06-16T05:19:07.812Z,97182.63
2023-06-16T05:21:38.755Z,97171.36
2023-06-16T05:24:08.687Z,97163.52
2023-06-16T05:26:37.381Z,97163.61
2023-06-16T05:29:06.176Z,97166.29
2023-06-16T05:31:37.249Z,97176.58
2023-06-16T05:34:06.577Z,97172.98
2023-06-16T05:36:36.646Z,97175.20
2023-06-16T05:39:08.478Z,97174.46
2023-06-16T05:41:39.122Z,97173.20
2023-06-16T05:44:09.116Z,97175.43
2023-06-16T05:46:37.294Z,97178.08
2023-06-16T05:49:06.466Z,97176.17
2023-06-16T05:51:34.694Z,97176.98
2023-06-16T05:54:02.797Z,97175.84
2023-06-16T05:56:32.219Z,97179.88
2023-06-16T05:59:00.659Z,97183.14
2023-06-16T06:01:29.466Z,97182.27
2023-06-16T06:03:59.799Z,97179.11
2023-06-16T06:06:29.376Z,97176.00
2023-06-16T06:08:57.744Z,97171.77
2023-06-16T06:11:27.228Z,97167.40
2023-06-16T06:13:56.025Z,97161.41
2023-06-16T06:16:25.006Z,97166.07
2023-06-16T06:18:54.244Z,97158.92
2023-06-16T06:21:25.555Z,97154.56
2023-06-16T06:23:54.067Z,97161.64
2023-06-16T06:26:24.395Z,97162.20
2023-06-16T06:28:52.673Z,97160.70
2023-06-16T06:31:21.102Z,97157.71
2023-06-16T06:33:51.701Z,97159.58
2023-06-16T06:36:28.510Z,97162.48
2023-06-16T06:38:58.331Z,97159.63
2023-06-16T06:41:27.866Z,97159.00
2023-06-16T06:43:59.994Z,97153.17
2023-06-16T06:46:50.475Z,97155.33
2023-06-16T06:49:20.098Z,97157.34
2023-06-16T06:51:48.570Z,97150.94
2023-06-16T06:54:16.697Z,97145.71
2023-06-16T06:56:44.700Z,97142.10
2023-06-16T06:59:12.962Z,97136.38
2023-06-16T07:01:41.496Z,97132.15
2023-06-16T07:04:11.204Z,97134.67
2023-06-16T07:06:39.642Z,97138.10
2023-06-16T07:09:12.794Z,97131.35
2023-06-16T07:11:43.667Z,97135.95
2023-06-16T07:14:13.812Z,97137.02
2023-06-16T07:16:41.933Z,97134.98
2023-06-16T07:19:09.858Z,97136.52
2023-06-16T07:21:40.889Z,97140.88
2023-06-16T07:24:09.036Z,97141.09
2023-06-16T07:26:41.234Z,97141.31
2023-06-16T07:29:09.585Z,97144.32
2023-06-16T07:31:37.762Z,97146.20
2023-06-16T07:34:06.152Z,97144.31
2023-06-16T07:36:34.532Z,97144.64
2023-06-16T07:39:02.594Z,97142.26
2023-06-16T07:41:30.744Z,97144.86
2023-06-16T07:44:01.491Z,97141.36
2023-06-16T07:46:29.896Z,97140.60
2023-06-16T07:48:58.189Z,97136.73
2023-06-16T07:51:28.683Z,97138.05
2023-06-16T07:53:57.307Z,97140.60
2023-06-16T07:56:26.225Z,97144.67
2023-06-16T07:58:55.936Z,97144.74
2023-06-16T08:01:24.174Z,97139.95
2023-06-16T08:03:52.569Z,97139.18
2023-06-16T08:06:21.298Z,97141.08
2023-06-16T08:08:50.392Z,97139.77
2023-06-16T08:11:18.547Z,97141.96
2023-06-16T08:13:46.805Z,97142.86
2023-06-16T08:16:14.904Z,97143.21
2023-06-16T08:18:43.084Z,97139.73
2023-06-16T08:21:12.449Z,97140.61
2023-06-16T08:23:41.168Z,97136.52
2023-06-16T08:26:09.742Z,97133.37
2023-06-16T08:28:41.367Z,97128.73
2023-06-16T08:31:10.432Z,97127.00
2023-06-16T08:33:39.301Z,97119.28
2023-06-16T08:36:08.511Z,97113.39
2023-06-16T08:38:39.135Z,97111.78
2023-06-16T08:41:09.306Z,97107.04
2023-06-16T08:43:38.610Z,97104.88
2023-06-16T08:46:13.181Z,97107.62
2023-06-16T08:48:44.731Z,97106.81
2023-06-16T08:51:18.001Z,97102.84
2023-06-16T08:53:49.284Z,97104.53
2023-06-16T08:56:20.174Z,97102.56
2023-06-16T08:58:49.423Z,97101.54
2023-06-16T09:01:19.747Z,97105.09
2023-06-16T09:03:49.767Z,97106.46
2023-06-16T09:06:18.099Z,97110.84
2023-06-16T09:08:46.210Z,97113.61
2023-06-16T09:11:24.292Z,97112.33
2023-06-16T09:13:55.552Z,97116.20
2023-06-16T09:16:24.574Z,97111.19
2023-06-16T09:18:53.093Z,97110.50
2023-06-16T09:21:25.016Z,97114.85
2023-06-16T09:24:05.698Z,97117.98
2023-06-16T09:26:39.305Z,97120.30
2023-06-16T09:29:28.016Z,97122.07
2023-06-16T09:32:11.775Z,97122.11
2023-06-16T09:34:40.299Z,97125.11
2023-06-16T09:37:11.781Z,97128.46
2023-06-16T09:39:41.454Z,97127.27
2023-06-16T09:42:15.139Z,97123.71
2023-06-16T09:44:44.304Z,97122.64
2023-06-16T09:47:15.772Z,97126.41
2023-06-16T09:49:45.932Z,97119.59
2023-06-16T09:52:17.034Z,97119.86
2023-06-16T09:54:45.818Z,97118.36
2023-06-16T09:57:16.915Z,97114.89
2023-06-16T09:59:46.021Z,97116.75
2023-06-16T10:02:14.964Z,97114.63
2023-06-16T10:04:46.781Z,97118.07
2023-06-16T10:07:15.494Z,97113.05
2023-06-16T10:12:25.178Z,97112.46
2023-06-16T10:14:53.628Z,97109.46
2023-06-16T10:17:22.958Z,97101.96
2023-06-16T10:19:54.103Z,97096.92
2023-06-16T10:22:23.624Z,97096.89
2023-06-16T10:24:52.596Z,97092.21
2023-06-16T10:27:22.262Z,97090.86
2023-06-16T10:29:53.042Z,97087.36
2023-06-16T10:32:22.236Z,97090.92
2023-06-16T10:34:58.421Z,97084.02
2023-06-16T10:37:31.045Z,97088.36
2023-06-16T10:40:15.167Z,97089.06
2023-06-16T10:42:48.453Z,97090.34
2023-06-16T10:45:33.053Z,97089.04
2023-06-16T10:48:05.371Z,97086.84
2023-06-16T10:50:34.738Z,97088.66
2023-06-16T10:53:16.459Z,97083.27
2023-06-16T10:55:46.576Z,97081.48
2023-06-16T10:58:15.921Z,97081.06
2023-06-16T11:01:04.448Z,97074.48
2023-06-16T11:03:44.677Z,97068.55
2023-06-16T11:06:16.027Z,97067.23
2023-06-16T11:08:56.509Z,97063.32
2023-06-16T11:11:34.529Z,97061.60
2023-06-16T11:14:03.110Z,97054.50
2023-06-16T11:16:35.926Z,97050.23
2023-06-16T11:19:04.882Z,97049.29
2023-06-16T11:21:33.861Z,97049.09
2023-06-16T11:24:14.480Z,97045.64
2023-06-16T11:26:42.954Z,97036.11
2023-06-16T11:29:12.766Z,97034.00
2023-06-16T11:31:41.687Z,97033.56
2023-06-16T11:34:10.644Z,97033.72
2023-06-16T11:36:39.325Z,97032.55
2023-06-16T11:39:12.935Z,97034.70
2023-06-16T11:41:53.903Z,97041.11
2023-06-16T11:44:29.253Z,97035.66
2023-06-16T11:46:58.608Z,97032.09
2023-06-16T11:49:31.701Z,97034.35
2023-06-16T11:52:07.112Z,97033.45
2023-06-16T11:54:36.760Z,97030.30
2023-06-16T11:57:05.299Z,97031.80
2023-06-16T11:59:34.641Z,97026.70
2023-06-16T12:02:04.547Z,97029.50
2023-06-16T12:04:35.542Z,97027.44
2023-06-16T12:07:05.682Z,97027.98
2023-06-16T12:09:38.378Z,97029.29
2023-06-16T12:12:08.950Z,97030.74
2023-06-16T12:14:38.080Z,97034.96
2023-06-16T12:17:07.339Z,97036.15
2023-06-16T12:19:36.207Z,97034.95
2023-06-16T12:22:05.085Z,97030.20
2023-06-16T12:24:41.195Z,97026.11
2023-06-16T12:27:10.248Z,97032.88
2023-06-16T12:29:39.725Z,97039.05
2023-06-16T12:32:08.532Z,97038.71
2023-06-16T12:34:37.449Z,97037.20
2023-06-16T12:37:09.258Z,97037.41
2023-06-16T12:39:44.435Z,97040.23
2023-06-16T12:42:13.521Z,97043.67
2023-06-16T12:44:46.747Z,97045.69
2023-06-16T12:47:19.713Z,97048.16
2023-06-16T12:49:48.747Z,97040.33
2023-06-16T12:52:16.911Z,97045.20
2023-06-16T12:54:48.306Z,97046.03
2023-06-16T12:57:17.054Z,97048.94
2023-06-16T12:59:45.545Z,97049.08
2023-06-16T13:02:13.840Z,97046.40
2023-06-16T13:04:42.862Z,97042.66
2023-06-16T13:07:12.832Z,97040.74
2023-06-16T13:09:42.840Z,97036.91
2023-06-16T13:12:13.216Z,97033.42
2023-06-16T13:14:41.789Z,97036.28
2023-06-16T13:17:10.507Z,97037.36
2023-06-16T13:19:39.742Z,97038.08
2023-06-16T13:22:08.614Z,97035.66
2023-06-16T13:24:40.652Z,97032.13
2023-06-16T13:27:09.065Z,97024.86
2023-06-16T13:29:37.492Z,97019.92
2023-06-16T13:32:08.980Z,97017.12
2023-06-16T13:34:39.971Z,97018.39
2023-06-16T13:37:13.386Z,97017.92
2023-06-16T13:39:43.609Z,97013.90
2023-06-16T13:42:13.791Z,97012.86
2023-06-16T13:44:43.030Z,97016.13
2023-06-16T13:47:12.182Z,97009.17
2023-06-16T13:49:40.440Z,97006.14
2023-06-16T13:52:09.178Z,97001.41
2023-06-16T13:54:37.230Z,96994.48
2023-06-16T13:57:06.073Z,96997.39
2023-06-16T13:59:34.320Z,96999.69
2023-06-16T14:02:02.406Z,96994.15
2023-06-16T14:04:31.249Z,96988.05
2023-06-16T14:06:59.826Z,96979.38
2023-06-16T14:09:31.613Z,96977.17
2023-06-16T14:12:01.186Z,96971.61
2023-06-16T14:14:31.427Z,96969.41
2023-06-16T14:17:00.121Z,96966.27
2023-06-16T14:19:35.121Z,96961.71
2023-06-16T14:22:04.626Z,96957.67
2023-06-16T14:24:34.542Z,96955.47
2023-06-16T14:27:02.810Z,96953.80
2023-06-16T14:29:31.431Z,96953.95
2023-06-16T14:32:02.619Z,96952.57
2023-06-16T14:34:31.262Z,96951.61
2023-06-16T14:37:00.523Z,96950.72
2023-06-16T14:39:35.718Z,96952.22
2023-06-16T14:42:04.329Z,96948.06
2023-06-16T14:44:33.423Z,96943.67
2023-06-16T14:47:03.061Z,96942.36
2023-06-16T14:49:34.472Z,96944.45
2023-06-16T14:52:03.569Z,96939.40
2023-06-16T14:54:31.900Z,96940.90
2023-06-16T14:57:03.053Z,96942.73
2023-06-16T14:59:31.621Z,96943.58
2023-06-16T15:01:59.961Z,96940.12
2023-06-16T15:04:28.335Z,96940.34
2023-06-16T15:06:57.602Z,96944.66
2023-06-16T15:09:26.425Z,96945.75
2023-06-16T15:11:56.924Z,96944.87
2023-06-16T15:14:25.426Z,96940.80
2023-06-16T15:16:55.235Z,96945.17
2023-06-16T15:19:24.937Z,96947.30
2023-06-16T15:21:53.347Z,96948.22
2023-06-16T15:24:21.712Z,96951.52
2023-06-16T15:26:52.366Z,96947.39
2023-06-16T15:29:21.668Z,96946.15
2023-06-16T15:31:53.819Z,96939.39
2023-06-16T15:34:22.113Z,96940.14
2023-06-16T15:36:50.406Z,96949.14
2023-06-16T15:39:20.820Z,96941.24
2023-06-16T15:41:49.043Z,96936.50
2023-06-16T15:44:17.497Z,96936.31
2023-06-16T15:46:48.331Z,96938.14
2023-06-16T15:49:16.963Z,96936.20
2023-06-16T15:51:45.538Z,96940.80
2023-06-16T15:54:14.642Z,96938.30
2023-06-16T15:56:48.965Z,96940.73
2023-06-16T15:59:17.462Z,96944.00
2023-06-16T16:01:46.221Z,96947.50
2023-06-16T16:04:14.789Z,96946.25
2023-06-16T16:06:43.313Z,96947.46
2023-06-16T16:09:13.197Z,96949.91
2023-06-16T16:11:42.181Z,96950.34
2023-06-16T16:14:10.549Z,96952.23
2023-06-16T16:16:39.350Z,96954.73
2023-06-16T16:19:09.321Z,96956.26
2023-06-16T16:21:37.852Z,96955.61
2023-06-16T16:24:07.806Z,96957.98
2023-06-16T16:26:36.202Z,96957.80
2023-06-16T16:29:04.375Z,96956.45
2023-06-16T16:31:32.554Z,96957.47
2023-06-16T16:34:00.840Z,96960.34
2023-06-16T16:36:29.053Z,96954.12
2023-06-16T16:38:58.157Z,96955.79
2023-06-16T16:41:27.470Z,96956.91
2023-06-16T16:43:56.510Z,96957.81
2023-06-16T16:46:26.478Z,96962.04
2023-06-16T16:48:56.367Z,96962.02
2023-06-16T16:51:24.682Z,96962.41
2023-06-16T16:53:55.428Z,96967.96
2023-06-16T16:56:25.435Z,96970.77
2023-06-16T16:58:55.023Z,96971.77
2023-06-16T17:01:23.571Z,96968.77
2023-06-16T17:03:51.815Z,96971.36
2023-06-16T17:06:20.497Z,96974.10
2023-06-16T17:09:00.673Z,96979.11
2023-06-16T17:11:28.792Z,96985.22
2023-06-16T17:13:57.617Z,96990.42
2023-06-16T17:16:25.805Z,96990.72
2023-06-16T17:18:54.232Z,97002.35
2023-06-16T17:21:22.654Z,97007.39
2023-06-16T17:23:52.092Z,97014.07
2023-06-16T17:26:20.337Z,97016.32
2023-06-16T17:28:48.863Z,97013.55
2023-06-16T17:31:17.292Z,97009.40
2023-06-16T17:33:45.801Z,97011.32
2023-06-16T17:36:15.617Z,97004.77
2023-06-16T17:38:43.820Z,96999.02
2023-06-16T17:41:18.770Z,97001.89
2023-06-16T17:43:47.911Z,97007.58
2023-06-16T17:46:16.057Z,97002.30
2023-06-16T17:48:44.643Z,97003.04
2023-06-16T17:51:12.675Z,97012.98
2023-06-16T17:53:41.698Z,97015.76
2023-06-16T17:56:10.296Z,97007.69
2023-06-16T17:58:38.710Z,97011.23
2023-06-16T18:01:07.097Z,97015.02
2023-06-16T18:03:35.179Z,97008.39
2023-06-16T18:06:03.499Z,97007.17
2023-06-16T18:08:31.885Z,97005.45
2023-06-16T18:11:03.158Z,97005.09
2023-06-16T18:13:31.396Z,97011.44
2023-06-16T18:15:59.565Z,97015.63
2023-06-16T18:18:28.798Z,97022.45
2023-06-16T18:20:58.460Z,97022.52
2023-06-16T18:23:28.520Z,97019.57
2023-06-16T18:25:58.565Z,97020.25
2023-06-16T18:28:29.783Z,97025.36
2023-06-16T18:31:00.275Z,97023.42
2023-06-16T18:33:30.818Z,97028.58
2023-06-16T18:36:01.033Z,97033.36
2023-06-16T18:38:31.306Z,97036.70
2023-06-16T18:41:00.703Z,97037.72
2023-06-16T18:43:28.927Z,97039.50
2023-06-16T18:45:57.103Z,97042.77
2023-06-16T18:48:25.945Z,97046.52
2023-06-16T18:50:54.485Z,97047.72
2023-06-16T18:53:24.709Z,97049.75
2023-06-16T18:55:53.550Z,97053.51
2023-06-16T18:58:27.814Z,97058.77
2023-06-16T19:00:56.209Z,97065.47
2023-06-16T19:03:25.144Z,97067.66
2023-06-16T19:05:54.155Z,97067.23
2023-06-16T19:08:28.154Z,97072.06
2023-06-16T19:10:56.233Z,97073.63
2023-06-16T19:13:24.453Z,97077.44
2023-06-16T19:15:52.760Z,97078.39
2023-06-16T19:18:20.874Z,97080.27
2023-06-16T19:20:49.967Z,97080.88
2023-06-16T19:23:18.247Z,97079.94
2023-06-16T19:25:46.532Z,97082.20
2023-06-16T19:28:19.124Z,97082.30
2023-06-16T19:30:48.026Z,97082.52
2023-06-16T19:33:17.038Z,97082.25
2023-06-16T19:35:46.292Z,97082.31
2023-06-16T19:38:14.634Z,97083.16
2023-06-16T19:40:45.040Z,97082.73
2023-06-16T19:43:13.158Z,97076.36
2023-06-16T19:45:43.773Z,97076.93
2023-06-16T19:48:11.978Z,97078.01
2023-06-16T19:50:40.170Z,97082.08
2023-06-16T19:53:08.532Z,97077.14
2023-06-16T19:55:48.501Z,97074.71
2023-06-16T19:58:19.543Z,97072.94
2023-06-16T20:00:47.878Z,97072.14
2023-06-16T20:03:16.296Z,97074.61
2023-06-16T20:05:44.715Z,97074.36
2023-06-16T20:08:14.685Z,97076.35
2023-06-16T20:10:44.360Z,97072.33
2023-06-16T20:13:12.540Z,97071.21
2023-06-16T20:15:40.647Z,97070.30
2023-06-16T20:18:09.262Z,97070.36
2023-06-16T20:20:37.903Z,97067.46
2023-06-16T20:23:07.510Z,97070.47
2023-06-16T20:25:38.152Z,97073.30
2023-06-16T20:28:06.667Z,97077.31
2023-06-16T20:30:34.923Z,97077.36
2023-06-16T20:33:03.788Z,97076.52
2023-06-16T20:35:34.565Z,97076.18
2023-06-16T20:38:03.941Z,97078.55
2023-06-16T20:40:32.021Z,97076.73
2023-06-16T20:43:01.962Z,97080.73
2023-06-16T20:45:31.475Z,97079.25
2023-06-16T20:48:01.890Z,97084.77
2023-06-16T20:50:31.660Z,97084.87
2023-06-16T20:53:00.924Z,97086.41
2023-06-16T20:55:29.604Z,97087.16
2023-06-16T20:57:59.882Z,97084.16
2023-06-16T21:00:34.067Z,97088.55
2023-06-16T21:03:05.581Z,97088.39
2023-06-16T21:05:34.526Z,97087.58
2023-06-16T21:08:03.931Z,97091.98
2023-06-16T21:10:36.535Z,97095.14
2023-06-16T21:13:05.038Z,97097.63
2023-06-16T21:15:34.778Z,97098.16
2023-06-16T21:18:05.185Z,97094.30
2023-06-16T21:20:33.358Z,97091.45
2023-06-16T21:23:02.944Z,97089.31
2023-06-16T21:25:34.220Z,97086.52
2023-06-16T21:28:05.253Z,97082.38
2023-06-16T21:30:34.032Z,97076.92
2023-06-16T21:33:02.015Z,97080.38
2023-06-16T21:38:20.006Z,97086.25
2023-06-16T21:40:48.124Z,97083.56
2023-06-16T21:43:16.212Z,97081.25
2023-06-16T21:45:44.489Z,97084.46
2023-06-16T21:48:12.959Z,97084.72
2023-06-16T21:50:42.394Z,97085.61
2023-06-16T21:53:10.841Z,97085.91
2023-06-16T21:55:39.295Z,97087.61
2023-06-16T21:58:08.024Z,97093.63
2023-06-16T22:00:37.783Z,97096.46
2023-06-16T22:03:06.312Z,97098.40
2023-06-16T22:05:35.106Z,97098.72
2023-06-16T22:08:04.106Z,97094.48
2023-06-16T22:10:32.099Z,97090.58
2023-06-16T22:13:00.198Z,97090.58
2023-06-16T22:15:28.245Z,97089.29
2023-06-16T22:17:58.672Z,97086.92
2023-06-16T22:20:27.527Z,97091.30
2023-06-16T22:22:55.540Z,97092.73
2023-06-16T22:25:26.524Z,97092.45
2023-06-16T22:27:54.755Z,97089.77
2023-06-16T22:30:23.286Z,97086.35
2023-06-16T22:32:51.585Z,97083.39
2023-06-16T22:35:19.641Z,97083.94
2023-06-16T22:37:48.578Z,97083.34
2023-06-16T22:40:17.057Z,97084.26
2023-06-16T22:42:45.114Z,97082.59
2023-06-16T22:45:13.355Z,97081.89
2023-06-16T22:47:43.209Z,97084.73
2023-06-16T22:50:11.408Z,97081.58
2023-06-16T22:52:41.049Z,97077.24
2023-06-16T22:55:10.036Z,97070.98
2023-06-16T22:57:38.068Z,97066.13
2023-06-16T23:00:08.218Z,97065.48
2023-06-16T23:02:36.706Z,97063.29
2023-06-16T23:05:05.629Z,97063.19
2023-06-16T23:07:33.840Z,97063.14
2023-06-16T23:10:02.364Z,97061.80
2023-06-16T23:12:30.418Z,97063.17
2023-06-16T23:14:58.473Z,97064.33
2023-06-16T23:17:27.053Z,97064.09
2023-06-16T23:19:55.200Z,97065.97
2023-06-16T23:22:23.384Z,97066.67
2023-06-16T23:24:51.540Z,97070.09
2023-06-16T23:27:22.441Z,97067.75
2023-06-16T23:29:53.235Z,97066.20
2023-06-16T23:32:21.396Z,97067.20
2023-06-16T23:34:49.592Z,97067.42
2023-06-16T23:37:17.975Z,97066.24
2023-06-16T23:39:46.319Z,97063.78
2023-06-16T23:42:14.606Z,97063.48
2023-06-16T23:44:42.573Z,97062.94
2023-06-16T23:47:10.997Z,97061.56
2023-06-16T23:49:39.142Z,97062.27
2023-06-16T23:52:07.790Z,97061.40
2023-06-16T23:54:36.843Z,97060.34
2023-06-16T23:57:05.754Z,97060.83
2023-06-16T23:59:34.335Z,97062.05
